Weston, Missouri
Current Conditions -  °F | °C
As of 1:53 AM on Thursday 23 Oct 2014 (Local Time) from KMCI Reporting Station
Overcast Overcast  
Wind Chill: 61°   Ceiling: 11000
Heat Index: 61°   Visibility: 10mi
Dew Point: 52°   Wind: 12mph
Humidity: 72%   Direction: 170°S
Pressure: 30.09"   Gusts: NA
Location:  39.41°N, 94.9°W
Report Text: KMCI 230653Z 17010KT 10SM FEW075 BKN110 OVC150 16/11 A3009 RMK AO2 SLP182 T01610111
Loading
Personal Weather Stations






























Interactive Weather Map
Tropical Storm Tracking
New forecast layout! Learn more

10-Day Weather Forecast

Advertisements
Track Severe Weather on mobile